My Meet Scores
Caitlin Lanners, Ultimate Gymnastics - MyMeetScores.com
Top100 | Top Teams | Upcoming Meets | Completed Meets | Latest | Add Scores | Help| Support | Bookmark and Share

Caitlin Lanners, Ultimate Gymnastics
Personal Bests
LevelVault BarsBeamFloorAA
39.4758.925 8.5509.15035.425
49.2009.500 9.4259.47537.375
Meet Scores
Date Meet Team Session Level Division Vault Bars Beam Floor AA
2020-03-06 Illinois Level 4 State Championships Ultimate Gymnastics 3 4 Youth B 9.050 13T 9.425 7T 9.425 11 9.475 6 37.375 8
2020-02-21 Kinetic Classic Ultimate Gymnastics 06 4 Younger 9.075 11 9.500 13T 9.200 33T 9.200 21T 36.975 11
2020-02-07 Harley Meet Womens - Midwest Twisters Ultimate Gymnastics of Gurnee O10 4 Jr B 8.350 3 8.825 2 9.075 2 9.200 1 35.450 1
2020-01-24 King Arthur Invitational Ultimate Gymnastics 1 4 Jr C 8.575 8T 8.800 8T 9.350 3 9.000 7T 35.725 6
2020-01-10 St Jude Benefit Meet Ultimate Gymnastics 4A 4 Jr B 9.200 4 9.025 7T 7.800 18 9.050 6 35.075 7
2019-12-20 2019 Women's Hawaiian Pineapple Classic Ultimate Gymnastics 7A 4 Ages 9U 8.675 6 9.400 2T 8.425 15 8.950 7 35.450 5
2019-12-06 Ultimate Wish Classic Ultimate Gymnastics 2 4 Jr B 9.050 5 9.500 4T 8.750 10 9.000 4 36.300 5
2019-11-08 Illinois Judges Cup Ultimate Gymnastics G4 4 All Ages 8.300 25T 9.150 8 8.200 49 8.550 23T 34.200 26T
2019-03-22 Illinois Gymnastics State Championships Ultimate Gymnastics 9 4 Ch B 8.450 22 8.625 18 8.250 25 8.600 22 33.925 25
2019-02-15 Women's Midwest Open Ultimate Gymnastics 09 4 Junior A 7.750 15 8.450 12 8.300 17 8.600 18 33.100 17
2019-01-25 King Arthur Invitational Ultimate Gymnastics 9 4 JR A 7.950 12 8.850 7 8.300 15 8.575 13 33.675 12
2019-01-18 2019 Bravo Classic Ultimate Gymnastics 5B 4 Child 8.300 7T 8.550 12T 7.900 20 8.600 17T 33.350 15
2019-01-11 St Jude Benefit Meet Ultimate Gymnastics 5A 4 Jr A 8.650 8 8.250 8 7.900 16 8.750 10T 33.550 10
2018-12-14 Hawaiian Pineapple Classic Ultimate Gymnastics 6A 4 Ages8U 7.150 13 9.075 4T 8.475 13 9.050 6T 33.750 9
2018-11-30 Ultimate Wish Classic Ultimate Gymnastics 11 4 JR A 8.400 8T 9.050 4 8.300 14 8.750 11 34.500 8
2018-05-03 Illinois USA Gymnastics Level 3 State Championships Ultimate Gymnsatics 7 3 Ch C 9.125 21 8.600 21 8.550 18 9.150 19 35.425 21
2018-02-17 Women's Midwest Open Ultimate Gymnsatics 10 3 Jr A 8.900 15 8.925 6 7.650 18 8.950 10 34.425 12
2018-01-26 King Arthur Invitational Ultimate Gymnsatics 7 3 JRA 8.875 12 8.450 9 8.175 12 8.950 4T 34.450 11
2018-01-19 2018 Bravo Classic Ultimate Gymnsatics 6B 3 Child 9.250 8T 8.175 19 8.200 18 9.150 5T 34.775 15
2018-01-12 St Jude Benefit Meet Ultimate Gymnsatics 6A 3 JrA 9.475 2 8.575 11T 7.000 16T 8.900 4 33.950 13
2017-12-01 Ultimate Wish Classic Ultimate Gymnsatics 5 3 CH 8.900 13 8.000 14 8.325 8 9.000 4 34.225 10
2017-11-16 Paul Hamm Thanksgiving Classic - Women Ultimate Gymnsatics 1 3 Younger 8.650 9 8.375 6 8.050 8T 9.000 2T 34.075 6
2017-11-10 Illinois NAWGJ Judges Cup 2017 Ultimate Gymnsatics S7 3 All Ages 8.600 51 8.175 41 7.925 55 8.675 34T 33.375 47T
Get your scores on
a t-shirt, pin, or hoodie

www.lazysuits.com